Time;durP1;ratioP1;P1;durP2;ratioP2;P2;SDS_P1;SDS_P2;PMS_P1;PMS_P2;Temp;Humidity;BMP_temperature;BMP_pressure;BME280_temperature;BME280_humidity;BME280_pressure;Samples;Min_cycle;Max_cycle;Signal;HPM_P1;HPM_P2
2023/12/08 00:01:50;;;;;;;;;;;3.90;99.90;;;;;;5026574;28;19933;-68
2023/12/08 00:04:17;;;;;;;;;;;3.80;99.90;;;;;;5020857;28;19937;-69
2023/12/08 00:06:43;;;;;;;;;;;3.80;99.90;;;;;;5024940;28;19928;-69
2023/12/08 00:09:12;;;;;;;;;;;3.80;99.90;;;;;;5024314;28;19988;-69
2023/12/08 00:11:38;;;;;;;;;;;3.80;99.90;;;;;;5024177;28;19987;-68
2023/12/08 00:14:06;;;;;;;;;;;3.80;99.90;;;;;;5024045;28;20013;-68
2023/12/08 00:16:32;;;;;;;;;;;3.90;99.90;;;;;;5024910;28;19940;-68
2023/12/08 00:18:59;;;;;;;;;;;3.90;99.90;;;;;;5022073;28;19975;-69
2023/12/08 00:21:26;;;;;;;;;;;3.90;99.90;;;;;;5027874;28;19928;-68
2023/12/08 00:23:54;;;;;;;;;;;3.80;99.90;;;;;;5022926;28;21139;-69
2023/12/08 00:26:23;;;;;;;;;;;3.80;99.90;;;;;;5026035;28;20392;-69
2023/12/08 00:28:49;;;;;;;;;;;3.90;99.90;;;;;;5025325;28;19928;-68
2023/12/08 00:31:18;;;;;;;;;;;3.90;99.90;;;;;;5028026;28;19971;-68
2023/12/08 00:33:45;;;;;;;;;;;3.90;99.90;;;;;;5021590;28;20018;-68
2023/12/08 00:36:13;;;;;;;;;;;3.80;99.90;;;;;;5021355;28;19941;-68
2023/12/08 00:38:40;;;;;;;;;;;3.80;99.90;;;;;;5029431;28;20416;-68
2023/12/08 00:41:08;;;;;;;;;;;3.80;99.90;;;;;;5022367;28;19978;-68
2023/12/08 00:43:36;;;;;;;;;;;3.80;99.90;;;;;;5024399;28;19932;-68
2023/12/08 00:46:03;;;;;;;;;;;3.80;99.90;;;;;;5026654;28;19972;-68
2023/12/08 00:48:30;;;;;;;;;;;3.80;99.90;;;;;;5023434;28;19967;-69
2023/12/08 00:50:57;;;;;;;;;;;3.80;99.90;;;;;;5024418;28;19988;-68
2023/12/08 00:53:23;;;;;;;;;;;3.90;99.90;;;;;;5023039;28;19991;-69
2023/12/08 00:55:50;;;;;;;;;;;3.90;99.90;;;;;;5026281;28;19940;-68
2023/12/08 00:58:17;;;;;;;;;;;4.00;99.90;;;;;;5022118;28;19960;-68
2023/12/08 01:00:45;;;;;;;;;;;4.00;99.90;;;;;;5022249;28;20406;-69
2023/12/08 01:03:12;;;;;;;;;;;3.90;99.90;;;;;;5027101;28;19928;-68
2023/12/08 01:05:39;;;;;;;;;;;3.80;99.90;;;;;;5025270;28;19937;-68
2023/12/08 01:08:06;;;;;;;;;;;3.80;99.90;;;;;;5027267;28;19933;-69
2023/12/08 01:10:32;;;;;;;;;;;3.80;99.90;;;;;;5024358;28;19933;-69
2023/12/08 01:12:59;;;;;;;;;;;3.80;99.90;;;;;;5026913;28;19943;-68
2023/12/08 01:15:26;;;;;;;;;;;3.90;99.90;;;;;;5025047;28;20018;-68
2023/12/08 01:17:54;;;;;;;;;;;4.00;99.90;;;;;;5022588;28;20272;-68
2023/12/08 01:20:21;;;;;;;;;;;4.00;99.90;;;;;;5021188;28;19932;-69
2023/12/08 01:22:48;;;;;;;;;;;4.10;99.90;;;;;;5023367;28;20023;-69
2023/12/08 01:25:15;;;;;;;;;;;4.10;99.90;;;;;;5024768;28;20431;-69
2023/12/08 01:27:42;;;;;;;;;;;4.10;99.90;;;;;;5021960;28;20391;-69
2023/12/08 01:30:09;;;;;;;;;;;4.10;99.90;;;;;;5030650;28;19979;-69
2023/12/08 01:32:35;;;;;;;;;;;4.20;99.90;;;;;;5021500;28;19944;-69
2023/12/08 01:35:04;;;;;;;;;;;4.20;99.90;;;;;;5025409;28;19933;-68
2023/12/08 01:37:31;;;;;;;;;;;4.20;99.90;;;;;;5026951;28;20042;-69
2023/12/08 01:39:57;;;;;;;;;;;4.20;99.90;;;;;;5023209;28;19976;-69
2023/12/08 01:42:24;;;;;;;;;;;4.20;99.90;;;;;;5021663;28;19933;-69
2023/12/08 01:44:51;;;;;;;;;;;4.20;99.90;;;;;;5027265;28;20054;-68
2023/12/08 01:47:17;;;;;;;;;;;4.30;99.90;;;;;;5018281;28;20364;-69
2023/12/08 01:49:44;;;;;;;;;;;4.30;99.90;;;;;;5022056;28;20621;-68
2023/12/08 01:52:17;;;;;;;;;;;4.30;99.90;;;;;;5023799;28;20070;-68
2023/12/08 01:54:44;;;;;;;;;;;4.30;99.90;;;;;;5022828;28;19945;-68
2023/12/08 01:57:11;;;;;;;;;;;4.30;99.90;;;;;;5025877;28;19929;-69
2023/12/08 01:59:38;;;;;;;;;;;4.30;99.90;;;;;;5024341;28;19991;-68
2023/12/08 02:02:04;;;;;;;;;;;4.30;99.90;;;;;;5022779;28;19924;-69
2023/12/08 02:04:31;;;;;;;;;;;4.30;99.90;;;;;;5021624;28;19994;-68
2023/12/08 02:06:58;;;;;;;;;;;4.20;99.90;;;;;;5022650;28;19929;-68
2023/12/08 02:09:26;;;;;;;;;;;4.30;99.90;;;;;;5020072;28;19936;-68
2023/12/08 02:11:53;;;;;;;;;;;4.30;99.90;;;;;;5019588;28;19925;-69
2023/12/08 02:14:20;;;;;;;;;;;4.30;99.90;;;;;;5021616;28;20016;-67
2023/12/08 02:16:50;;;;;;;;;;;4.40;99.90;;;;;;5025683;28;20380;-68
2023/12/08 02:19:18;;;;;;;;;;;4.30;99.90;;;;;;5020389;28;20024;-68
2023/12/08 02:21:44;;;;;;;;;;;4.30;99.90;;;;;;5021614;28;20168;-68
2023/12/08 02:24:12;;;;;;;;;;;4.30;99.90;;;;;;5024532;28;20058;-67
2023/12/08 02:26:39;;;;;;;;;;;4.30;99.90;;;;;;5022840;28;19994;-67
2023/12/08 02:29:09;;;;;;;;;;;4.30;99.90;;;;;;5019338;28;19939;-68
2023/12/08 02:31:36;;;;;;;;;;;4.30;99.90;;;;;;5021958;28;20396;-67
2023/12/08 02:34:03;;;;;;;;;;;4.40;99.90;;;;;;5018924;28;20377;-68
2023/12/08 02:36:30;;;;;;;;;;;4.40;99.90;;;;;;5020562;28;20024;-68
2023/12/08 02:38:59;;;;;;;;;;;4.40;99.90;;;;;;5023089;28;19932;-69
2023/12/08 02:41:27;;;;;;;;;;;4.40;99.90;;;;;;5019534;28;19932;-68
2023/12/08 02:43:54;;;;;;;;;;;4.40;99.90;;;;;;5018494;28;19933;-68
2023/12/08 02:46:20;;;;;;;;;;;4.40;99.90;;;;;;5019776;28;19939;-68
2023/12/08 02:48:47;;;;;;;;;;;4.40;99.90;;;;;;5022020;28;19939;-68
2023/12/08 02:51:14;;;;;;;;;;;4.30;99.90;;;;;;5026358;28;19933;-68
2023/12/08 02:53:41;;;;;;;;;;;4.30;99.90;;;;;;5019556;28;20576;-68
2023/12/08 02:56:08;;;;;;;;;;;4.30;99.90;;;;;;5021975;28;19972;-67
2023/12/08 02:58:36;;;;;;;;;;;4.40;99.90;;;;;;5018497;28;20390;-68
2023/12/08 03:01:03;;;;;;;;;;;4.30;99.90;;;;;;5021604;28;20018;-67
2023/12/08 03:03:29;;;;;;;;;;;4.30;99.90;;;;;;5017254;28;20010;-67
2023/12/08 03:05:56;;;;;;;;;;;4.40;99.90;;;;;;5028620;28;19936;-67
2023/12/08 03:08:23;;;;;;;;;;;4.40;99.90;;;;;;5022141;28;20030;-67
2023/12/08 03:10:50;;;;;;;;;;;4.40;99.90;;;;;;5024870;28;19968;-67
2023/12/08 03:13:16;;;;;;;;;;;4.40;99.90;;;;;;5027250;28;19975;-67
2023/12/08 03:15:44;;;;;;;;;;;4.30;99.90;;;;;;5028661;28;19929;-67
2023/12/08 03:18:11;;;;;;;;;;;4.40;99.90;;;;;;5024618;28;19986;-68
2023/12/08 03:20:38;;;;;;;;;;;4.40;99.90;;;;;;5026340;28;19936;-68
2023/12/08 03:23:05;;;;;;;;;;;4.40;99.90;;;;;;5026011;28;19969;-67
2023/12/08 03:25:32;;;;;;;;;;;4.40;99.90;;;;;;5030941;28;19939;-68
2023/12/08 03:27:58;;;;;;;;;;;4.40;99.90;;;;;;5027885;28;19929;-68
2023/12/08 03:30:25;;;;;;;;;;;4.50;99.90;;;;;;5023382;28;19956;-67
2023/12/08 03:32:53;;;;;;;;;;;4.40;99.90;;;;;;5026572;28;21221;-67
2023/12/08 03:35:20;;;;;;;;;;;4.40;99.90;;;;;;5026976;28;19972;-67
2023/12/08 03:37:47;;;;;;;;;;;4.40;99.90;;;;;;5026235;28;19929;-66
2023/12/08 03:40:14;;;;;;;;;;;4.50;99.90;;;;;;5032673;28;20521;-67
2023/12/08 03:42:41;;;;;;;;;;;4.40;99.90;;;;;;5022316;28;19960;-67
2023/12/08 03:45:08;;;;;;;;;;;4.50;99.90;;;;;;5027830;28;19933;-67
2023/12/08 03:47:34;;;;;;;;;;;4.50;99.90;;;;;;5026820;28;19963;-67
2023/12/08 03:50:03;;;;;;;;;;;4.50;99.90;;;;;;5024878;28;19933;-67
2023/12/08 03:52:29;;;;;;;;;;;4.50;99.90;;;;;;5024882;28;19929;-67
2023/12/08 03:54:56;;;;;;;;;;;4.60;99.90;;;;;;5024414;28;19968;-67
2023/12/08 03:57:23;;;;;;;;;;;4.50;99.90;;;;;;5025538;28;20606;-67
2023/12/08 03:59:50;;;;;;;;;;;4.50;99.90;;;;;;5023041;28;19925;-67
2023/12/08 04:02:16;;;;;;;;;;;4.60;99.90;;;;;;5019706;28;19933;-67
2023/12/08 04:04:43;;;;;;;;;;;4.50;99.90;;;;;;5022510;28;20603;-67
2023/12/08 04:07:11;;;;;;;;;;;4.60;99.90;;;;;;5020921;28;19937;-67
2023/12/08 04:09:38;;;;;;;;;;;4.60;99.90;;;;;;5022821;28;19994;-68
2023/12/08 04:12:05;;;;;;;;;;;4.60;99.90;;;;;;5021075;28;19933;-67
2023/12/08 04:14:32;;;;;;;;;;;4.60;99.90;;;;;;5026677;28;20392;-67
2023/12/08 04:16:59;;;;;;;;;;;4.60;99.90;;;;;;5025660;28;19936;-68
2023/12/08 04:19:26;;;;;;;;;;;4.60;99.90;;;;;;5023542;28;19932;-67
2023/12/08 04:21:52;;;;;;;;;;;4.70;99.90;;;;;;5024509;28;19984;-67
2023/12/08 04:24:20;;;;;;;;;;;4.60;99.90;;;;;;5024403;28;20033;-67
2023/12/08 04:26:47;;;;;;;;;;;4.60;99.90;;;;;;5024465;28;19986;-67
2023/12/08 04:29:14;;;;;;;;;;;4.70;99.90;;;;;;5026229;28;19972;-67
2023/12/08 04:31:41;;;;;;;;;;;4.70;99.90;;;;;;5025626;28;19929;-67
2023/12/08 04:34:07;;;;;;;;;;;4.80;99.90;;;;;;5023681;28;19986;-67
2023/12/08 04:36:34;;;;;;;;;;;4.80;99.90;;;;;;5020163;28;20034;-67
2023/12/08 04:39:01;;;;;;;;;;;4.90;99.90;;;;;;5020890;28;19932;-68
2023/12/08 04:41:29;;;;;;;;;;;4.90;99.90;;;;;;5024714;28;19986;-68
2023/12/08 04:43:56;;;;;;;;;;;4.90;99.90;;;;;;5023184;28;19933;-68
2023/12/08 04:46:23;;;;;;;;;;;4.90;99.90;;;;;;5029829;28;20502;-68
2023/12/08 04:48:50;;;;;;;;;;;4.90;99.90;;;;;;5026291;28;19975;-69
2023/12/08 04:51:17;;;;;;;;;;;5.00;99.90;;;;;;5024185;28;20019;-69
2023/12/08 04:53:43;;;;;;;;;;;5.00;99.90;;;;;;5022398;28;20025;-69
2023/12/08 04:56:10;;;;;;;;;;;5.00;99.90;;;;;;5022209;28;20362;-67
2023/12/08 04:58:39;;;;;;;;;;;5.10;99.90;;;;;;5022486;28;19979;-68
2023/12/08 05:01:07;;;;;;;;;;;5.10;99.90;;;;;;5023530;28;19933;-68
2023/12/08 05:03:34;;;;;;;;;;;5.10;99.90;;;;;;5021308;28;19925;-67
2023/12/08 05:06:00;;;;;;;;;;;5.10;99.90;;;;;;5019841;28;19962;-68
2023/12/08 05:08:29;;;;;;;;;;;5.20;99.90;;;;;;5019699;28;19929;-68
2023/12/08 05:10:55;;;;;;;;;;;5.20;99.90;;;;;;5024425;28;20020;-68
2023/12/08 05:13:22;;;;;;;;;;;5.20;99.90;;;;;;5020829;28;19936;-67
2023/12/08 05:15:50;;;;;;;;;;;5.20;99.90;;;;;;5021779;28;19974;-67
2023/12/08 05:18:17;;;;;;;;;;;5.10;99.90;;;;;;5021209;28;20014;-69
2023/12/08 05:20:44;;;;;;;;;;;5.20;99.90;;;;;;5024834;28;19940;-69
2023/12/08 05:23:11;;;;;;;;;;;5.30;99.90;;;;;;5022308;28;19933;-68
2023/12/08 05:25:38;;;;;;;;;;;5.30;99.90;;;;;;5023572;28;19972;-69
2023/12/08 05:28:05;;;;;;;;;;;5.30;99.90;;;;;;5023182;28;19933;-68
2023/12/08 05:30:32;;;;;;;;;;;5.30;99.90;;;;;;5023149;28;19933;-68
2023/12/08 05:33:00;;;;;;;;;;;5.30;99.90;;;;;;5021728;28;19940;-69
2023/12/08 05:35:27;;;;;;;;;;;5.30;99.90;;;;;;5020848;28;20370;-68
2023/12/08 05:37:54;;;;;;;;;;;5.40;99.90;;;;;;5021342;28;19987;-68
2023/12/08 05:40:20;;;;;;;;;;;5.40;99.90;;;;;;5018843;28;19991;-70
2023/12/08 05:42:47;;;;;;;;;;;5.40;99.90;;;;;;5028006;28;19932;-68
2023/12/08 05:45:14;;;;;;;;;;;5.50;99.90;;;;;;5019191;28;19937;-68
2023/12/08 05:47:43;;;;;;;;;;;5.50;99.90;;;;;;5022231;28;20014;-69
2023/12/08 05:50:11;;;;;;;;;;;5.50;99.90;;;;;;5027079;28;19939;-69
2023/12/08 05:52:38;;;;;;;;;;;5.50;99.90;;;;;;5018165;28;19968;-69
2023/12/08 05:55:05;;;;;;;;;;;5.50;99.90;;;;;;5032708;28;19995;-69
2023/12/08 05:57:32;;;;;;;;;;;5.50;99.90;;;;;;5017324;28;19929;-69
2023/12/08 05:59:58;;;;;;;;;;;5.50;99.90;;;;;;5021539;28;19976;-68
2023/12/08 06:02:25;;;;;;;;;;;5.50;99.90;;;;;;5022770;28;19940;-67
2023/12/08 06:04:52;;;;;;;;;;;5.60;99.90;;;;;;5027352;28;19990;-68
2023/12/08 06:07:21;;;;;;;;;;;5.60;99.90;;;;;;5020473;28;19932;-69
2023/12/08 06:09:47;;;;;;;;;;;5.60;99.90;;;;;;5025930;28;19925;-69
2023/12/08 06:12:14;;;;;;;;;;;5.60;99.90;;;;;;5021752;28;19998;-69
2023/12/08 06:14:41;;;;;;;;;;;5.60;99.90;;;;;;5032091;28;19933;-68
2023/12/08 06:17:08;;;;;;;;;;;5.60;99.90;;;;;;5018659;28;19991;-68
2023/12/08 06:19:34;;;;;;;;;;;5.70;99.90;;;;;;5017339;28;20459;-68
2023/12/08 06:22:01;;;;;;;;;;;5.70;99.90;;;;;;5024385;28;20335;-69
2023/12/08 06:24:29;;;;;;;;;;;5.70;99.90;;;;;;5025190;28;19925;-69
2023/12/08 06:26:56;;;;;;;;;;;5.70;99.90;;;;;;5019543;28;20335;-69
2023/12/08 06:29:23;;;;;;;;;;;5.80;99.90;;;;;;5018421;28;19943;-68
2023/12/08 06:31:50;;;;;;;;;;;5.80;99.90;;;;;;5029777;28;19933;-68
2023/12/08 06:34:16;;;;;;;;;;;5.80;99.90;;;;;;5019522;28;20078;-68
2023/12/08 06:36:46;;;;;;;;;;;5.80;99.90;;;;;;5020885;28;19952;-68
2023/12/08 06:39:15;;;;;;;;;;;5.80;99.90;;;;;;5013714;28;19928;-69
2023/12/08 06:41:43;;;;;;;;;;;5.90;99.90;;;;;;5021377;28;19937;-68
2023/12/08 06:44:10;;;;;;;;;;;5.90;99.90;;;;;;5026658;28;20533;-68
2023/12/08 06:46:37;;;;;;;;;;;5.90;99.90;;;;;;5025397;28;19972;-69
2023/12/08 06:49:04;;;;;;;;;;;5.90;99.90;;;;;;5033622;28;19940;-68
2023/12/08 06:51:31;;;;;;;;;;;6.00;99.90;;;;;;5031794;28;19925;-69
2023/12/08 06:53:58;;;;;;;;;;;6.00;99.90;;;;;;5032347;28;19931;-69
2023/12/08 06:56:24;;;;;;;;;;;6.00;99.90;;;;;;5041699;28;19933;-68
2023/12/08 06:58:52;;;;;;;;;;;6.00;99.90;;;;;;5037730;28;20352;-68
2023/12/08 07:01:19;;;;;;;;;;;6.10;99.90;;;;;;5026736;28;20595;-68
2023/12/08 07:03:46;;;;;;;;;;;6.10;99.90;;;;;;5044295;28;20319;-68
2023/12/08 07:06:14;;;;;;;;;;;6.10;99.90;;;;;;5028758;28;20060;-67
2023/12/08 07:08:41;;;;;;;;;;;6.10;99.90;;;;;;5041334;28;20027;-68
2023/12/08 07:11:08;;;;;;;;;;;6.20;99.90;;;;;;5059538;22;19928;-68
2023/12/08 07:13:35;;;;;;;;;;;6.30;99.90;;;;;;5057953;28;19924;-68
2023/12/08 07:16:03;;;;;;;;;;;6.30;99.90;;;;;;5067244;28;20028;-68
2023/12/08 07:18:30;;;;;;;;;;;6.30;99.90;;;;;;5058715;28;19928;-68
2023/12/08 07:20:57;;;;;;;;;;;6.40;99.90;;;;;;5072852;28;19970;-68
2023/12/08 07:23:24;;;;;;;;;;;6.30;99.90;;;;;;5039655;28;20335;-69
2023/12/08 07:25:51;;;;;;;;;;;6.40;99.90;;;;;;5074801;28;19928;-69
2023/12/08 07:28:17;;;;;;;;;;;6.40;99.90;;;;;;5064494;28;19924;-70
2023/12/08 07:30:44;;;;;;;;;;;6.50;99.90;;;;;;5055067;28;19928;-67
2023/12/08 07:33:12;;;;;;;;;;;6.50;99.90;;;;;;5051172;28;20303;-70
2023/12/08 07:35:39;;;;;;;;;;;6.40;99.90;;;;;;5062082;28;19924;-68
2023/12/08 07:38:06;;;;;;;;;;;6.50;99.90;;;;;;5060610;28;19994;-68
2023/12/08 07:40:33;;;;;;;;;;;6.50;99.90;;;;;;5056251;28;20003;-68
2023/12/08 07:43:04;;;;;;;;;;;6.50;99.90;;;;;;5046592;28;20065;-69
2023/12/08 07:45:31;;;;;;;;;;;6.50;99.90;;;;;;5035153;28;19932;-68
2023/12/08 07:47:58;;;;;;;;;;;6.60;99.90;;;;;;5054197;28;19971;-69
2023/12/08 07:50:26;;;;;;;;;;;6.60;99.90;;;;;;5053341;28;19967;-69
2023/12/08 07:52:53;;;;;;;;;;;6.60;99.90;;;;;;5046871;28;19975;-69
2023/12/08 07:55:20;;;;;;;;;;;6.60;99.90;;;;;;5055352;28;19970;-69
2023/12/08 07:57:48;;;;;;;;;;;6.60;99.90;;;;;;5060408;28;20382;-70
2023/12/08 08:00:15;;;;;;;;;;;6.70;99.90;;;;;;5071938;28;20314;-68
2023/12/08 08:02:43;;;;;;;;;;;6.70;99.90;;;;;;5046891;28;20509;-69
2023/12/08 08:05:09;;;;;;;;;;;6.70;99.90;;;;;;5054463;28;20290;-69
2023/12/08 08:07:38;;;;;;;;;;;6.70;99.90;;;;;;5058209;28;20025;-68
2023/12/08 08:10:05;;;;;;;;;;;6.80;99.90;;;;;;5051446;28;19929;-69
2023/12/08 08:12:33;;;;;;;;;;;6.80;99.90;;;;;;5053449;28;19929;-69
2023/12/08 08:15:00;;;;;;;;;;;6.90;99.90;;;;;;5054745;28;19932;-68
2023/12/08 08:17:27;;;;;;;;;;;6.90;99.90;;;;;;5038972;28;20353;-69
2023/12/08 08:19:54;;;;;;;;;;;6.90;99.90;;;;;;5058119;28;19925;-69
2023/12/08 08:22:20;;;;;;;;;;;7.00;99.90;;;;;;5050930;28;19925;-68
2023/12/08 08:24:48;;;;;;;;;;;7.00;99.90;;;;;;5048825;28;19932;-68
2023/12/08 08:27:18;;;;;;;;;;;7.00;99.90;;;;;;5042477;28;19979;-68
2023/12/08 08:29:45;;;;;;;;;;;7.00;99.90;;;;;;5051256;28;20047;-68
2023/12/08 08:32:13;;;;;;;;;;;7.00;99.90;;;;;;5044146;28;20388;-67
2023/12/08 08:34:40;;;;;;;;;;;7.10;99.90;;;;;;5045647;28;19925;-71
2023/12/08 08:37:07;;;;;;;;;;;7.10;99.90;;;;;;5052845;28;19968;-69
2023/12/08 08:39:34;;;;;;;;;;;7.10;99.90;;;;;;5048123;28;19975;-68
2023/12/08 08:42:02;;;;;;;;;;;7.10;99.90;;;;;;5048555;28;20423;-68
2023/12/08 08:44:28;;;;;;;;;;;7.10;99.90;;;;;;5052769;28;19983;-68
2023/12/08 08:46:55;;;;;;;;;;;7.10;99.90;;;;;;5053797;28;20383;-68
2023/12/08 08:49:23;;;;;;;;;;;7.20;99.90;;;;;;5054313;28;20006;-69
2023/12/08 08:51:49;;;;;;;;;;;7.20;99.90;;;;;;5047828;28;19932;-68
2023/12/08 08:54:16;;;;;;;;;;;7.20;99.90;;;;;;5044794;28;20357;-69
2023/12/08 08:56:43;;;;;;;;;;;7.20;99.90;;;;;;5039114;28;19925;-70
2023/12/08 08:59:11;;;;;;;;;;;7.30;99.90;;;;;;5045069;28;19925;-70
2023/12/08 09:01:40;;;;;;;;;;;7.30;99.90;;;;;;5051853;28;19929;-71
2023/12/08 09:04:07;;;;;;;;;;;7.30;99.90;;;;;;5063034;28;19928;-71
2023/12/08 09:06:34;;;;;;;;;;;7.30;99.90;;;;;;5050279;28;19932;-69
2023/12/08 09:09:01;;;;;;;;;;;7.30;99.90;;;;;;5038193;28;19925;-70
2023/12/08 09:11:27;;;;;;;;;;;7.30;99.90;;;;;;5051374;28;19986;-70
2023/12/08 09:13:54;;;;;;;;;;;7.40;99.90;;;;;;5045901;28;20007;-71
2023/12/08 09:16:22;;;;;;;;;;;7.30;99.90;;;;;;5049517;28;19964;-71
2023/12/08 09:18:49;;;;;;;;;;;7.40;99.90;;;;;;5030658;28;20403;-71
2023/12/08 09:21:16;;;;;;;;;;;7.40;99.90;;;;;;5046890;28;20363;-72
2023/12/08 09:23:43;;;;;;;;;;;7.50;99.90;;;;;;5046949;28;19936;-71
2023/12/08 09:26:10;;;;;;;;;;;7.50;99.90;;;;;;5032884;28;19925;-71
2023/12/08 09:28:36;;;;;;;;;;;7.40;99.90;;;;;;5033304;28;19932;-71
2023/12/08 09:31:03;;;;;;;;;;;7.50;99.90;;;;;;5062686;28;19931;-72
2023/12/08 09:33:31;;;;;;;;;;;7.50;99.90;;;;;;5065919;28;19935;-71
2023/12/08 09:35:58;;;;;;;;;;;7.50;99.90;;;;;;5044998;28;19978;-70
2023/12/08 09:38:25;;;;;;;;;;;7.50;99.90;;;;;;5050299;28;19925;-71
2023/12/08 09:40:52;;;;;;;;;;;7.50;99.90;;;;;;5046071;28;19955;-70
2023/12/08 09:43:22;;;;;;;;;;;7.60;99.90;;;;;;5042110;28;19932;-71
2023/12/08 09:45:49;;;;;;;;;;;7.60;99.90;;;;;;5048601;28;19928;-71
2023/12/08 09:48:17;;;;;;;;;;;7.60;99.90;;;;;;5048586;28;19966;-71
2023/12/08 09:50:45;;;;;;;;;;;7.70;99.90;;;;;;5051018;28;20674;-70
2023/12/08 09:53:12;;;;;;;;;;;7.70;99.90;;;;;;5052214;28;19925;-71
2023/12/08 09:55:38;;;;;;;;;;;7.70;99.90;;;;;;5041722;28;20335;-70
2023/12/08 09:58:08;;;;;;;;;;;7.80;99.90;;;;;;5045530;28;20519;-71
2023/12/08 10:00:37;;;;;;;;;;;7.80;99.90;;;;;;5050391;28;19960;-69
2023/12/08 10:03:04;;;;;;;;;;;7.80;99.90;;;;;;5056839;28;19924;-70
2023/12/08 10:05:32;;;;;;;;;;;7.80;99.90;;;;;;5055214;28;19977;-69
2023/12/08 10:08:01;;;;;;;;;;;7.80;99.90;;;;;;5051184;28;19932;-70
2023/12/08 10:10:28;;;;;;;;;;;7.90;99.90;;;;;;5048123;28;20002;-70
2023/12/08 10:12:54;;;;;;;;;;;7.90;99.90;;;;;;5050719;28;19971;-70
2023/12/08 10:15:21;;;;;;;;;;;7.90;99.90;;;;;;5047233;28;19925;-70
2023/12/08 10:17:49;;;;;;;;;;;7.90;99.90;;;;;;5047370;28;20027;-70
2023/12/08 10:20:16;;;;;;;;;;;8.00;99.90;;;;;;5047717;28;19924;-69
2023/12/08 10:22:45;;;;;;;;;;;8.00;99.90;;;;;;5034821;28;19955;-70
2023/12/08 10:25:13;;;;;;;;;;;8.00;99.90;;;;;;5042821;28;19932;-70
2023/12/08 10:27:40;;;;;;;;;;;8.10;99.90;;;;;;5046735;28;19925;-70
2023/12/08 10:30:08;;;;;;;;;;;8.10;99.90;;;;;;5036107;28;19967;-69
2023/12/08 10:32:35;;;;;;;;;;;8.10;99.90;;;;;;5052842;28;20368;-69
2023/12/08 10:35:01;;;;;;;;;;;8.10;99.90;;;;;;5048644;28;19932;-70
2023/12/08 10:37:28;;;;;;;;;;;8.10;99.90;;;;;;5041988;28;20407;-69
2023/12/08 10:39:55;;;;;;;;;;;8.10;99.90;;;;;;5043549;28;19929;-70
2023/12/08 10:42:24;;;;;;;;;;;8.20;99.90;;;;;;5050565;28;19978;-70
2023/12/08 10:44:51;;;;;;;;;;;8.20;99.90;;;;;;5048710;28;19929;-70
2023/12/08 10:47:18;;;;;;;;;;;8.20;99.90;;;;;;5040663;28;19933;-69
2023/12/08 10:49:45;;;;;;;;;;;8.30;99.90;;;;;;5051885;28;19971;-70
2023/12/08 10:52:12;;;;;;;;;;;8.40;99.90;;;;;;5042927;28;19995;-69
2023/12/08 10:54:39;;;;;;;;;;;8.30;99.90;;;;;;5043966;28;19924;-69
2023/12/08 10:57:06;;;;;;;;;;;8.30;99.90;;;;;;5046949;28;19924;-70
2023/12/08 10:59:34;;;;;;;;;;;8.40;99.90;;;;;;5050801;28;19924;-70
2023/12/08 11:02:02;;;;;;;;;;;8.40;99.90;;;;;;5042009;28;19982;-70
2023/12/08 11:04:31;;;;;;;;;;;8.40;99.90;;;;;;5052027;28;19970;-69
2023/12/08 11:07:01;;;;;;;;;;;8.40;99.90;;;;;;5056016;28;19925;-69
2023/12/08 11:09:29;;;;;;;;;;;8.40;99.90;;;;;;5039601;28;19924;-70
2023/12/08 11:11:56;;;;;;;;;;;8.30;99.90;;;;;;5050298;28;19925;-70
2023/12/08 11:14:29;;;;;;;;;;;8.30;99.90;;;;;;5046565;28;19925;-70
2023/12/08 11:17:00;;;;;;;;;;;8.40;99.90;;;;;;5047058;28;19924;-71
2023/12/08 11:19:27;;;;;;;;;;;8.30;99.90;;;;;;5049975;28;19925;-70
2023/12/08 11:21:53;;;;;;;;;;;8.30;99.90;;;;;;5048780;28;19933;-71
2023/12/08 11:24:21;;;;;;;;;;;8.30;99.90;;;;;;5061649;28;19928;-70
2023/12/08 11:26:51;;;;;;;;;;;8.30;99.90;;;;;;5058343;28;20021;-70
2023/12/08 11:29:21;;;;;;;;;;;8.30;99.90;;;;;;5042121;28;20006;-71
2023/12/08 11:31:52;;;;;;;;;;;8.30;99.90;;;;;;5045502;28;19969;-72
2023/12/08 11:34:24;;;;;;;;;;;8.40;99.90;;;;;;5043852;28;20354;-71
2023/12/08 11:36:51;;;;;;;;;;;8.40;99.90;;;;;;5057883;28;19925;-71
2023/12/08 11:39:40;;;;;;;;;;;8.40;99.90;;;;;;5061289;28;19981;-71
2023/12/08 11:42:07;;;;;;;;;;;8.50;99.90;;;;;;5049942;28;20388;-71
2023/12/08 11:44:34;;;;;;;;;;;8.50;99.90;;;;;;5054609;28;20522;-71
2023/12/08 11:47:01;;;;;;;;;;;8.50;99.90;;;;;;5060150;28;20433;-72
2023/12/08 11:49:30;;;;;;;;;;;8.60;99.90;;;;;;5060608;28;19925;-70
2023/12/08 11:52:10;;;;;;;;;;;8.50;99.90;;;;;;5054589;28;19924;-70
2023/12/08 11:54:55;;;;;;;;;;;8.60;99.90;;;;;;5065334;28;19971;-70
2023/12/08 11:57:22;;;;;;;;;;;8.60;99.90;;;;;;5061163;28;19932;-71
2023/12/08 11:59:50;;;;;;;;;;;8.60;99.90;;;;;;5045880;28;19925;-70
2023/12/08 12:02:17;;;;;;;;;;;8.60;99.90;;;;;;5047229;28;19931;-70
2023/12/08 12:04:45;;;;;;;;;;;8.60;99.90;;;;;;5053217;28;19948;-71
2023/12/08 12:07:12;;;;;;;;;;;8.60;99.90;;;;;;5047295;28;19929;-72
2023/12/08 12:09:40;;;;;;;;;;;8.60;99.90;;;;;;5048699;28;20592;-71
2023/12/08 12:12:11;;;;;;;;;;;8.60;99.90;;;;;;5054339;28;20011;-71
2023/12/08 12:14:42;;;;;;;;;;;8.70;99.90;;;;;;5049039;28;19929;-72
2023/12/08 12:17:10;;;;;;;;;;;8.70;99.90;;;;;;5066573;28;19979;-72
2023/12/08 12:19:37;;;;;;;;;;;8.60;99.90;;;;;;5057327;28;19925;-73
2023/12/08 12:22:06;;;;;;;;;;;8.60;99.90;;;;;;5055368;28;19948;-73
2023/12/08 12:24:33;;;;;;;;;;;8.70;99.90;;;;;;5040776;28;19947;-73
2023/12/08 12:27:05;;;;;;;;;;;8.70;99.90;;;;;;5045366;28;19929;-74
2023/12/08 12:29:33;;;;;;;;;;;8.70;99.90;;;;;;5046002;28;19986;-74
2023/12/08 12:32:00;;;;;;;;;;;8.70;99.90;;;;;;5041986;28;19929;-74
2023/12/08 12:34:27;;;;;;;;;;;8.70;99.90;;;;;;5044264;28;20334;-73
2023/12/08 12:36:54;;;;;;;;;;;8.70;99.90;;;;;;5043454;28;19925;-73
2023/12/08 12:39:23;;;;;;;;;;;8.80;99.90;;;;;;5042227;28;19931;-74
2023/12/08 12:41:50;;;;;;;;;;;8.90;99.90;;;;;;5044152;28;19933;-73
2023/12/08 12:44:18;;;;;;;;;;;8.90;99.90;;;;;;5032950;28;19995;-73
2023/12/08 12:46:45;;;;;;;;;;;8.90;99.90;;;;;;5050391;28;20026;-73
2023/12/08 12:49:15;;;;;;;;;;;8.80;99.90;;;;;;5045192;28;19979;-73
2023/12/08 12:51:42;;;;;;;;;;;8.90;99.90;;;;;;5052332;28;20423;-74
2023/12/08 12:54:10;;;;;;;;;;;8.90;99.90;;;;;;5056543;28;19932;-74
2023/12/08 12:56:48;;;;;;;;;;;8.90;99.90;;;;;;5050175;28;19940;-74
2023/12/08 12:59:15;;;;;;;;;;;8.90;99.90;;;;;;5046729;28;20023;-75
2023/12/08 13:01:46;;;;;;;;;;;9.00;99.90;;;;;;5048240;28;19925;-74
2023/12/08 13:04:13;;;;;;;;;;;9.00;99.90;;;;;;5051950;28;19925;-74
2023/12/08 13:06:40;;;;;;;;;;;9.00;99.90;;;;;;5046645;28;19925;-74
2023/12/08 13:09:08;;;;;;;;;;;9.00;99.90;;;;;;5048068;28;19925;-72
2023/12/08 13:11:35;;;;;;;;;;;9.00;99.90;;;;;;5050970;28;20298;-73
2023/12/08 13:14:03;;;;;;;;;;;9.00;99.90;;;;;;5044985;28;19952;-72
2023/12/08 13:16:31;;;;;;;;;;;9.00;99.90;;;;;;5054239;28;19929;-73
2023/12/08 13:18:57;;;;;;;;;;;9.00;99.90;;;;;;5046014;28;19944;-73
2023/12/08 13:21:25;;;;;;;;;;;9.10;99.90;;;;;;5051078;28;19924;-71
2023/12/08 13:23:52;;;;;;;;;;;9.10;99.90;;;;;;5043784;28;20376;-72
2023/12/08 13:26:18;;;;;;;;;;;9.20;99.90;;;;;;5050913;28;20280;-77
2023/12/08 13:28:45;;;;;;;;;;;9.20;99.90;;;;;;5050686;28;20284;-78
2023/12/08 13:31:14;;;;;;;;;;;9.20;99.90;;;;;;5034550;28;20003;-77
2023/12/08 13:33:40;;;;;;;;;;;9.20;99.90;;;;;;5043004;28;19932;-76
2023/12/08 13:36:08;;;;;;;;;;;9.20;99.90;;;;;;5046133;28;19987;-76
2023/12/08 13:38:36;;;;;;;;;;;9.30;99.90;;;;;;5050653;28;19932;-78
2023/12/08 13:41:03;;;;;;;;;;;9.30;99.90;;;;;;5047408;28;19929;-72
2023/12/08 13:43:29;;;;;;;;;;;9.40;99.90;;;;;;5046532;28;20029;-73
2023/12/08 13:45:56;;;;;;;;;;;9.30;99.90;;;;;;5050513;28;19925;-73
2023/12/08 13:48:24;;;;;;;;;;;9.30;99.90;;;;;;5052114;28;19925;-72
2023/12/08 13:50:52;;;;;;;;;;;9.30;99.90;;;;;;5051501;28;19924;-74
2023/12/08 13:53:19;;;;;;;;;;;9.30;99.90;;;;;;5051869;28;19924;-73
2023/12/08 13:55:45;;;;;;;;;;;9.30;99.90;;;;;;5050768;28;19932;-72
2023/12/08 13:58:12;;;;;;;;;;;9.30;99.90;;;;;;5051382;28;19956;-74
2023/12/08 14:00:39;;;;;;;;;;;9.30;99.90;;;;;;5046147;28;19925;-74
2023/12/08 14:03:06;;;;;;;;;;;9.30;99.90;;;;;;5043997;28;19966;-73
2023/12/08 14:05:37;;;;;;;;;;;9.30;99.90;;;;;;5062034;28;19931;-74
2023/12/08 14:08:04;;;;;;;;;;;9.30;99.90;;;;;;5050502;28;19932;-74
2023/12/08 14:10:31;;;;;;;;;;;9.30;99.90;;;;;;5039347;28;19932;-73
2023/12/08 14:12:58;;;;;;;;;;;9.30;99.90;;;;;;5041376;28;19940;-74
2023/12/08 14:15:24;;;;;;;;;;;9.30;99.90;;;;;;5045935;28;20386;-74
2023/12/08 14:17:51;;;;;;;;;;;9.30;99.90;;;;;;5042656;28;20059;-74
2023/12/08 14:20:18;;;;;;;;;;;9.30;99.90;;;;;;5033722;28;20264;-74
2023/12/08 14:22:47;;;;;;;;;;;9.30;99.90;;;;;;5044187;28;19925;-74
2023/12/08 14:25:14;;;;;;;;;;;9.30;99.90;;;;;;5034606;28;20352;-73
2023/12/08 14:27:41;;;;;;;;;;;9.30;99.90;;;;;;5039456;28;20265;-74
2023/12/08 14:30:08;;;;;;;;;;;9.30;99.90;;;;;;5026101;28;20010;-73
2023/12/08 14:32:35;;;;;;;;;;;9.30;99.90;;;;;;5031531;28;19925;-73